Time;durP1;ratioP1;P1;durP2;ratioP2;P2;SDS_P1;SDS_P2;PMS_P1;PMS_P2;Temp;Humidity;BMP_temperature;BMP_pressure;BME280_temperature;BME280_humidity;BME280_pressure;Samples;Min_cycle;Max_cycle;Signal;HPM_P1;HPM_P2
2023/05/07 00:01:35;;;;;;;4.35;2.53;;;;;;;17.48;61.70;100537.44;4163627;28;20049;-63
2023/05/07 00:03:38;;;;;;;9.45;3.10;;;;;;;17.49;62.10;100535.66;4163366;28;20049;-63
2023/05/07 00:05:42;;;;;;;5.20;2.53;;;;;;;17.45;62.04;100525.19;4163575;28;20518;-63
2023/05/07 00:07:44;;;;;;;5.30;2.50;;;;;;;17.42;62.69;100525.22;4146007;28;20052;-63
2023/05/07 00:09:49;;;;;;;5.40;2.88;;;;;;;17.38;63.29;100530.56;4146111;28;20038;-63
2023/05/07 00:11:52;;;;;;;7.15;2.60;;;;;;;17.32;63.62;100518.34;4163505;28;20042;-63
2023/05/07 00:13:53;;;;;;;6.65;3.20;;;;;;;17.30;63.66;100521.88;4163262;28;20045;-63
2023/05/07 00:15:56;;;;;;;3.92;2.70;;;;;;;17.26;63.48;100523.69;4163489;28;20060;-64
2023/05/07 00:17:59;;;;;;;3.78;2.40;;;;;;;17.22;63.43;100517.59;4165412;28;20063;-63
2023/05/07 00:20:03;;;;;;;4.88;2.92;;;;;;;17.22;63.22;100516.72;4166485;28;20496;-63
2023/05/07 00:22:06;;;;;;;5.45;3.03;;;;;;;17.15;63.01;100505.41;4166667;28;20407;-66
2023/05/07 00:24:09;;;;;;;7.80;3.22;;;;;;;17.12;62.95;100507.22;4166695;28;20067;-66
2023/05/07 00:26:13;;;;;;;5.28;2.80;;;;;;;17.07;62.61;100502.88;4166653;28;20045;-66
2023/05/07 00:28:18;;;;;;;7.80;2.97;;;;;;;17.02;62.75;100515.19;4166625;28;20165;-66
2023/05/07 00:30:21;;;;;;;3.85;2.58;;;;;;;17.05;62.46;100514.28;4148844;28;20038;-66
2023/05/07 00:32:24;;;;;;;5.65;3.03;;;;;;;17.01;62.33;100505.59;4166245;28;20456;-66
2023/05/07 00:34:27;;;;;;;5.63;2.90;;;;;;;16.99;62.39;100507.34;4132568;28;20149;-66
2023/05/07 00:36:30;;;;;;;7.18;3.45;;;;;;;16.98;62.27;100503.00;4148890;28;20053;-64
2023/05/07 00:38:34;;;;;;;6.88;3.22;;;;;;;16.99;62.21;100506.50;4132672;28;20129;-63
2023/05/07 00:40:37;;;;;;;4.32;2.80;;;;;;;16.99;61.97;100507.34;4132463;28;20074;-63
2023/05/07 00:42:41;;;;;;;5.00;2.75;;;;;;;17.05;61.63;100506.41;4148544;28;20041;-63
2023/05/07 00:44:45;;;;;;;5.03;2.75;;;;;;;17.08;61.01;100507.28;4149054;28;20100;-63
2023/05/07 00:46:49;;;;;;;4.93;2.83;;;;;;;17.10;61.07;100502.84;4165132;28;20140;-63
2023/05/07 00:48:53;;;;;;;7.53;3.28;;;;;;;17.15;61.09;100509.81;4148764;28;20042;-63
2023/05/07 00:50:56;;;;;;;5.32;3.08;;;;;;;17.16;61.65;100501.91;4132276;28;20043;-63
2023/05/07 00:52:59;;;;;;;6.50;2.92;;;;;;;17.14;62.21;100497.56;4148499;28;20046;-63
2023/05/07 00:55:06;;;;;;;10.20;3.47;;;;;;;17.08;62.89;100499.38;4166193;28;20483;-63
2023/05/07 00:57:10;;;;;;;5.53;3.13;;;;;;;17.07;63.03;100496.78;4148852;28;20121;-63
2023/05/07 00:59:15;;;;;;;5.20;2.70;;;;;;;17.06;62.85;100495.88;4148601;28;20038;-63
2023/05/07 01:01:18;;;;;;;7.78;2.80;;;;;;;17.04;62.92;100486.28;4148556;28;20038;-63
2023/05/07 01:03:22;;;;;;;6.53;2.78;;;;;;;17.00;63.54;100484.59;4148254;28;20038;-63
2023/05/07 01:05:27;;;;;;;4.97;2.70;;;;;;;16.97;63.35;100485.50;4166395;28;20475;-63
2023/05/07 01:07:31;;;;;;;5.88;2.70;;;;;;;16.95;63.00;100484.63;4148421;28;20042;-63
2023/05/07 01:09:35;;;;;;;5.95;3.00;;;;;;;16.93;63.23;100481.16;4148292;28;20038;-63
2023/05/07 01:11:40;;;;;;;5.05;2.55;;;;;;;16.91;63.28;100485.59;4166056;28;20037;-63
2023/05/07 01:13:43;;;;;;;6.00;2.95;;;;;;;16.88;63.22;100489.09;4131876;28;20116;-63
2023/05/07 01:15:48;;;;;;;5.20;2.75;;;;;;;16.85;63.13;100485.59;4148350;28;20048;-63
2023/05/07 01:17:51;;;;;;;5.10;2.90;;;;;;;16.79;63.24;100486.53;4148268;28;20068;-63
2023/05/07 01:20:00;;;;;;;4.40;2.65;;;;;;;16.75;63.32;100479.59;4148108;28;20045;-63
2023/05/07 01:22:10;;;;;;;4.38;2.20;;;;;;;16.75;63.35;100485.72;4148423;28;20064;-63
2023/05/07 01:24:26;;;;;;;5.63;2.92;;;;;;;16.73;63.02;100482.25;4148237;28;20050;-63
2023/05/07 01:26:29;;;;;;;5.22;2.63;;;;;;;16.75;63.01;100479.59;4164519;28;20644;-63
2023/05/07 01:28:50;;;;;;;5.22;3.33;;;;;;;16.77;62.92;100474.34;4163969;28;20385;-63
2023/05/07 01:30:55;;;;;;;6.32;2.78;;;;;;;16.79;62.92;100478.66;4164108;28;20033;-63
2023/05/07 01:33:03;;;;;;;5.20;2.58;;;;;;;16.80;62.64;100476.91;4148029;28;20136;-63
2023/05/07 01:35:10;;;;;;;4.78;2.60;;;;;;;16.77;62.82;100471.72;4147987;28;20332;-63
2023/05/07 01:37:14;;;;;;;5.00;2.85;;;;;;;16.75;62.88;100469.97;4165520;28;20046;-63
2023/05/07 01:39:17;;;;;;;4.07;2.72;;;;;;;16.74;63.00;100472.59;4147968;28;20045;-63
2023/05/07 01:41:22;;;;;;;4.18;2.88;;;;;;;16.79;62.49;100472.53;4147799;28;20044;-63
2023/05/07 01:43:25;;;;;;;4.47;2.90;;;;;;;16.80;62.49;100475.16;4131336;28;20527;-63
2023/05/07 01:45:29;;;;;;;8.57;3.13;;;;;;;16.84;62.27;100478.63;4147813;28;20038;-63
2023/05/07 01:47:33;;;;;;;7.22;2.70;;;;;;;16.82;63.04;100480.38;4165429;28;20507;-63
2023/05/07 01:49:36;;;;;;;8.40;2.85;;;;;;;16.78;63.52;100478.66;4147837;28;20385;-63
2023/05/07 01:51:40;;;;;;;5.15;2.58;;;;;;;16.77;63.90;100482.22;4147653;28;20062;-63
2023/05/07 01:53:45;;;;;;;5.95;2.97;;;;;;;16.76;63.75;100481.31;4147733;28;20324;-63
2023/05/07 01:55:48;;;;;;;4.90;2.95;;;;;;;16.75;63.56;100480.47;4147594;28;20046;-63
2023/05/07 01:57:53;;;;;;;5.30;3.30;;;;;;;16.71;63.59;100481.38;4131508;28;20129;-64
2023/05/07 01:59:56;;;;;;;6.95;3.35;;;;;;;16.73;62.76;100487.50;4147579;28;20642;-64
2023/05/07 02:01:59;;;;;;;5.22;2.67;;;;;;;16.71;63.31;100488.38;4147609;28;20157;-64
2023/05/07 02:04:02;;;;;;;6.35;3.15;;;;;;;16.68;63.48;100491.06;4130929;28;20527;-64
2023/05/07 02:06:05;;;;;;;5.10;3.00;;;;;;;16.66;63.39;100479.69;4147721;28;20072;-64
2023/05/07 02:08:11;;;;;;;4.38;2.80;;;;;;;16.64;63.93;100487.56;4147467;28;20045;-64
2023/05/07 02:10:14;;;;;;;5.03;2.45;;;;;;;16.61;64.05;100486.75;4164913;28;20041;-64
2023/05/07 02:12:17;;;;;;;5.35;2.70;;;;;;;16.56;64.42;100485.03;4147081;28;20069;-64
2023/05/07 02:14:21;;;;;;;6.57;2.90;;;;;;;16.54;64.59;100491.19;4147825;28;20133;-64
2023/05/07 02:16:24;;;;;;;5.38;2.72;;;;;;;16.47;65.13;100490.38;4147474;28;20072;-64
2023/05/07 02:18:27;;;;;;;6.82;3.42;;;;;;;16.44;65.19;100490.41;4164857;28;20084;-64
2023/05/07 02:20:30;;;;;;;4.95;2.50;;;;;;;16.39;65.41;100493.06;4147217;28;20049;-64
2023/05/07 02:22:33;;;;;;;5.22;2.85;;;;;;;16.38;65.31;100486.09;4147077;28;20042;-64
2023/05/07 02:24:36;;;;;;;5.80;2.85;;;;;;;16.35;65.56;100494.00;4147224;28;20104;-64
2023/05/07 02:26:40;;;;;;;4.10;2.90;;;;;;;16.33;65.92;100489.63;4147183;28;20057;-64
2023/05/07 02:28:43;;;;;;;5.17;3.33;;;;;;;16.29;65.39;100490.53;4147128;28;20049;-64
2023/05/07 02:30:47;;;;;;;4.95;3.05;;;;;;;16.27;65.72;100492.31;4146959;28;20056;-64
2023/05/07 02:32:50;;;;;;;5.80;3.47;;;;;;;16.22;65.26;100490.59;4163372;28;20139;-64
2023/05/07 02:34:53;;;;;;;6.28;3.45;;;;;;;16.23;65.43;100496.72;4164691;28;20047;-64
2023/05/07 02:36:56;;;;;;;7.38;3.00;;;;;;;16.23;64.91;100501.97;4147246;28;20100;-64
2023/05/07 02:39:02;;;;;;;7.65;3.20;;;;;;;16.23;65.13;100491.47;4147346;28;20045;-64
2023/05/07 02:41:05;;;;;;;6.47;3.08;;;;;;;16.20;65.43;100494.97;4163368;28;20523;-63
2023/05/07 02:43:09;;;;;;;5.93;3.10;;;;;;;16.19;66.06;100489.75;4146993;28;20049;-63
2023/05/07 02:45:12;;;;;;;;;;;;;;;16.01;65.87;100486.38;4131438;28;20046;-64
2023/05/07 02:47:17;;;;;;;4.78;3.25;;;;;;;16.01;65.94;100481.16;4147003;28;19977;-64
2023/05/07 02:49:20;;;;;;;7.95;3.15;;;;;;;15.99;65.26;100482.91;4146821;28;20080;-64
2023/05/07 02:51:24;;;;;;;5.50;3.40;;;;;;;16.00;65.64;100479.44;4147086;28;20080;-64
2023/05/07 02:53:29;;;;;;;5.97;3.45;;;;;;;16.05;65.07;100482.88;4146601;28;20069;-64
2023/05/07 02:55:32;;;;;;;7.18;3.03;;;;;;;16.02;65.05;100482.91;4146835;28;20033;-64
2023/05/07 02:57:35;;;;;;;5.88;3.33;;;;;;;16.04;64.92;100478.50;4146732;28;20587;-64
2023/05/07 02:59:40;;;;;;;6.53;3.60;;;;;;;16.08;64.94;100486.34;4146648;28;20089;-65
2023/05/07 03:01:44;;;;;;;6.22;3.03;;;;;;;16.14;64.45;100486.31;4164644;28;20061;-64
2023/05/07 03:03:49;;;;;;;5.75;3.10;;;;;;;16.17;64.23;100486.28;4146394;28;20136;-64
2023/05/07 03:05:52;;;;;;;6.60;4.00;;;;;;;16.19;64.40;100489.75;4146819;28;20046;-63
2023/05/07 03:07:55;;;;;;;5.65;3.65;;;;;;;16.22;64.06;100494.97;4130285;28;20110;-63
2023/05/07 03:09:58;;;;;;;5.82;3.70;;;;;;;16.27;63.86;100484.44;4130441;28;20427;-63
2023/05/07 03:12:01;;;;;;;4.65;3.50;;;;;;;16.24;64.37;100482.72;4162809;28;20045;-63
2023/05/07 03:14:04;;;;;;;7.50;3.22;;;;;;;16.20;64.07;100481.00;4146378;28;20121;-63
2023/05/07 03:16:07;;;;;;;6.68;3.60;;;;;;;16.22;63.95;100480.13;4146539;28;20088;-63
2023/05/07 03:18:11;;;;;;;12.88;3.63;;;;;;;16.28;63.77;100473.94;4146574;28;20046;-63
2023/05/07 03:20:15;;;;;;;5.38;3.65;;;;;;;16.20;64.22;100474.00;4146363;28;20492;-63
2023/05/07 03:22:18;;;;;;;;;;;;;;;16.15;64.26;100462.69;4164180;28;20081;-63
2023/05/07 03:24:22;;;;;;;5.15;3.03;;;;;;;16.16;64.77;100460.91;4146626;28;19964;-63
2023/05/07 03:26:25;;;;;;;7.13;3.95;;;;;;;16.16;64.70;100460.91;4163932;28;20074;-63
2023/05/07 03:28:28;;;;;;;7.95;3.58;;;;;;;16.14;64.48;100466.19;4146526;28;20092;-63
2023/05/07 03:30:35;;;;;;;6.45;3.60;;;;;;;16.13;64.72;100466.19;4146203;28;20105;-63
2023/05/07 03:32:38;;;;;;;9.15;3.80;;;;;;;16.08;64.78;100460.09;4145966;28;20041;-63
2023/05/07 03:34:44;;;;;;;8.38;3.88;;;;;;;16.04;65.27;100456.66;4146309;28;20041;-63
2023/05/07 03:36:49;;;;;;;5.63;3.33;;;;;;;16.04;64.91;100465.38;4146355;28;20042;-63
2023/05/07 03:38:53;;;;;;;7.15;4.07;;;;;;;16.05;64.97;100459.25;4130154;28;20293;-63
2023/05/07 03:40:59;;;;;;;8.63;3.97;;;;;;;16.07;64.74;100463.63;4146224;28;20077;-63
2023/05/07 03:43:02;;;;;;;6.25;3.50;;;;;;;16.01;65.28;100465.41;4146065;28;20041;-63
2023/05/07 03:45:08;;;;;;;6.72;4.18;;;;;;;16.16;65.08;100456.53;4162539;28;20044;-63
2023/05/07 03:47:13;;;;;;;8.75;3.95;;;;;;;16.04;65.27;100465.38;4146265;28;20057;-63
2023/05/07 03:49:15;;;;;;;6.57;4.25;;;;;;;15.99;65.55;100463.69;4162528;28;20056;-63
2023/05/07 03:51:19;;;;;;;9.88;4.22;;;;;;;16.00;65.14;100465.44;4146089;28;20491;-63
2023/05/07 03:53:23;;;;;;;7.80;4.13;;;;;;;15.99;65.06;100477.69;4161592;28;20042;-63
2023/05/07 03:55:26;;;;;;;5.88;3.80;;;;;;;15.95;65.37;100478.56;4146167;28;20046;-63
2023/05/07 03:57:33;;;;;;;6.60;3.40;;;;;;;15.92;65.97;100478.59;4146070;28;20052;-63
2023/05/07 03:59:36;;;;;;;6.40;3.22;;;;;;;15.88;65.59;100482.13;4145920;28;20101;-63
2023/05/07 04:01:40;;;;;;;6.30;3.45;;;;;;;15.89;65.88;100483.88;4146149;28;20053;-63
2023/05/07 04:03:43;;;;;;;6.28;3.30;;;;;;;15.81;66.43;100485.66;4145847;28;20562;-63
2023/05/07 04:05:46;;;;;;;5.97;3.28;;;;;;;15.80;66.36;100482.19;4146164;28;20060;-63
2023/05/07 04:07:49;;;;;;;8.48;4.13;;;;;;;15.81;66.15;100489.19;4146180;28;20038;-63
2023/05/07 04:09:57;;;;;;;5.75;4.10;;;;;;;15.86;65.93;100487.38;4146191;28;20046;-63
2023/05/07 04:12:01;;;;;;;7.18;3.47;;;;;;;15.85;66.46;100484.78;4146032;28;20048;-63
2023/05/07 04:14:05;;;;;;;5.13;3.00;;;;;;;15.85;66.34;100492.63;4146084;28;20038;-63
2023/05/07 04:16:08;;;;;;;7.65;3.80;;;;;;;15.84;66.09;100483.91;4146028;28;20092;-63
2023/05/07 04:18:13;;;;;;;7.28;3.50;;;;;;;15.83;65.73;100486.53;4146246;28;20034;-63
2023/05/07 04:20:18;;;;;;;4.40;3.08;;;;;;;15.87;66.34;100488.25;4146062;28;20045;-63
2023/05/07 04:22:26;;;;;;;8.45;3.72;;;;;;;15.81;66.09;100489.19;4146014;28;20385;-63
2023/05/07 04:24:32;;;;;;;5.23;3.00;;;;;;;15.84;66.23;100488.25;4146101;28;20038;-63
2023/05/07 04:26:38;;;;;;;5.68;3.28;;;;;;;15.84;67.25;100491.78;4146089;28;20407;-63
2023/05/07 04:28:41;;;;;;;6.20;3.70;;;;;;;15.83;67.16;100490.03;4162350;28;20068;-63
2023/05/07 04:30:44;;;;;;;5.93;3.55;;;;;;;15.82;66.96;100498.75;4146083;28;20034;-63
2023/05/07 04:32:47;;;;;;;6.10;3.50;;;;;;;15.83;66.53;100494.41;4145619;28;20042;-63
2023/05/07 04:34:50;;;;;;;8.45;4.43;;;;;;;15.84;66.58;100496.13;4145989;28;20093;-64
2023/05/07 04:36:54;;;;;;;7.90;4.22;;;;;;;15.88;66.83;100490.84;4145911;28;20050;-63
2023/05/07 04:38:57;;;;;;;8.32;3.92;;;;;;;15.93;66.62;100488.22;4146005;28;20136;-63
2023/05/07 04:41:04;;;;;;;6.97;3.88;;;;;;;15.95;66.47;100491.69;4129683;28;20046;-64
2023/05/07 04:43:10;;;;;;;6.65;4.10;;;;;;;15.95;66.51;100488.22;4145849;28;20049;-63
2023/05/07 04:45:20;;;;;;;7.85;3.78;;;;;;;15.99;66.53;100487.28;4145966;28;20516;-63
2023/05/07 04:47:23;;;;;;;5.72;3.38;;;;;;;16.00;66.61;100495.16;4162401;28;20045;-63
2023/05/07 04:49:26;;;;;;;6.25;3.40;;;;;;;16.02;66.54;100500.38;4145913;28;20033;-63
2023/05/07 04:51:32;;;;;;;7.28;4.22;;;;;;;16.07;66.63;100493.34;4145925;28;20100;-63
2023/05/07 04:53:35;;;;;;;5.85;3.28;;;;;;;16.10;66.00;100500.31;4145425;28;20084;-63
2023/05/07 04:55:38;;;;;;;7.10;3.40;;;;;;;16.10;66.30;100502.94;4145834;28;20042;-63
2023/05/07 04:57:41;;;;;;;7.50;3.25;;;;;;;16.17;66.35;100502.00;4145829;28;20070;-63
2023/05/07 04:59:48;;;;;;;7.40;4.15;;;;;;;16.19;65.87;100513.34;4145554;28;20072;-63
2023/05/07 05:01:51;;;;;;;7.18;4.18;;;;;;;16.19;66.16;100502.84;4162166;28;20045;-63
2023/05/07 05:03:54;;;;;;;4.63;3.47;;;;;;;16.19;65.88;100506.38;4145603;28;20543;-63
2023/05/07 05:05:59;;;;;;;7.28;3.28;;;;;;;16.15;65.99;100509.00;4165084;28;20045;-63
2023/05/07 05:08:04;;;;;;;7.90;4.03;;;;;;;16.18;66.09;100515.13;4148558;28;20060;-63
2023/05/07 05:10:10;;;;;;;6.65;3.72;;;;;;;16.22;66.10;100505.44;4148338;28;20096;-64
2023/05/07 05:12:15;;;;;;;7.22;4.15;;;;;;;16.25;65.68;100507.19;4148183;28;20038;-64
2023/05/07 05:14:18;;;;;;;7.00;4.13;;;;;;;16.23;65.82;100510.69;4148274;28;20073;-64
2023/05/07 05:16:22;;;;;;;5.45;3.53;;;;;;;16.26;65.86;100516.81;4165974;28;20424;-64
2023/05/07 05:18:25;;;;;;;6.13;4.10;;;;;;;16.27;66.01;100515.94;4148358;28;20089;-64
2023/05/07 05:20:28;;;;;;;10.80;4.47;;;;;;;16.30;65.52;100519.38;4179645;22;20049;-60
2023/05/07 05:22:31;;;;;;;7.18;4.22;;;;;;;16.30;65.47;100523.78;4147811;28;20042;-60
2023/05/07 05:24:35;;;;;;;6.53;4.18;;;;;;;16.26;66.04;100516.81;4148682;28;20121;-60
2023/05/07 05:26:38;;;;;;;8.43;3.65;;;;;;;16.22;66.20;100513.31;4148358;28;20470;-60
2023/05/07 05:28:41;;;;;;;6.13;3.78;;;;;;;16.29;65.92;100516.78;4148250;28;20570;-60
2023/05/07 05:30:44;;;;;;;5.63;3.75;;;;;;;16.31;66.17;100525.50;4131943;28;20057;-60
2023/05/07 05:32:48;;;;;;;5.68;3.95;;;;;;;16.32;66.47;100525.47;4147990;28;20076;-60
2023/05/07 05:34:51;;;;;;;7.05;4.20;;;;;;;16.35;66.28;100533.34;4148480;28;20092;-60
2023/05/07 05:36:54;;;;;;;8.07;4.00;;;;;;;16.36;66.10;100540.31;4164559;28;20402;-60
2023/05/07 05:38:57;;;;;;;8.98;4.53;;;;;;;16.38;66.26;100528.06;4148173;28;20512;-61
2023/05/07 05:40:59;;;;;;;7.03;3.95;;;;;;;16.44;65.85;100534.13;4148121;28;20108;-61
2023/05/07 05:43:04;;;;;;;5.85;3.90;;;;;;;16.48;66.18;100534.09;4147842;28;20468;-61
2023/05/07 05:45:09;;;;;;;7.35;4.57;;;;;;;16.57;65.82;100533.13;4148244;28;20105;-60
2023/05/07 05:47:13;;;;;;;7.25;4.38;;;;;;;16.56;65.57;100531.41;4148035;28;20042;-61
2023/05/07 05:49:17;;;;;;;5.30;3.70;;;;;;;16.62;65.32;100533.09;4148049;28;20460;-60
2023/05/07 05:51:21;;;;;;;7.43;4.50;;;;;;;16.70;64.91;100534.75;4147920;28;20060;-61
2023/05/07 05:53:24;;;;;;;6.85;4.50;;;;;;;16.70;64.75;100532.13;4147848;28;20049;-60
2023/05/07 05:55:27;;;;;;;10.82;4.28;;;;;;;16.72;64.68;100525.13;4147912;28;20059;-60
2023/05/07 05:57:31;;;;;;;6.88;4.43;;;;;;;16.86;64.35;100534.59;4147809;28;20100;-60
2023/05/07 05:59:34;;;;;;;6.80;4.68;;;;;;;16.89;64.12;100534.59;4147924;28;20088;-60
2023/05/07 06:01:37;;;;;;;7.47;3.83;;;;;;;16.80;64.40;100529.44;4147683;28;20528;-60
2023/05/07 06:03:40;;;;;;;5.97;4.07;;;;;;;16.85;64.29;100541.63;4147515;28;20582;-61
2023/05/07 06:05:49;;;;;;;7.35;3.80;;;;;;;16.83;64.58;100539.91;4147876;28;20412;-60
2023/05/07 06:07:55;;;;;;;7.70;4.55;;;;;;;16.91;64.80;100543.34;4147733;28;20434;-60
2023/05/07 06:09:58;;;;;;;6.47;3.88;;;;;;;16.93;64.77;100539.81;4147829;28;20531;-60
2023/05/07 06:12:01;;;;;;;7.45;3.40;;;;;;;16.99;64.72;100535.38;4164023;28;20132;-60
2023/05/07 06:14:05;;;;;;;6.93;3.80;;;;;;;17.00;65.02;100538.00;4163830;28;20183;-60
2023/05/07 06:16:09;;;;;;;6.15;4.15;;;;;;;17.11;64.82;100532.59;4147064;28;20041;-60
2023/05/07 06:18:12;;;;;;;8.93;4.60;;;;;;;17.17;64.29;100534.28;4147488;28;20054;-60
2023/05/07 06:20:16;;;;;;;9.90;4.23;;;;;;;17.30;63.94;100530.63;4147554;28;20093;-61
2023/05/07 06:22:21;;;;;;;7.00;4.25;;;;;;;17.34;63.62;100529.69;4147357;28;20646;-60
2023/05/07 06:24:24;;;;;;;5.60;3.17;;;;;;;17.37;63.75;100531.44;4147480;28;20040;-60
2023/05/07 06:26:27;;;;;;;5.35;3.40;;;;;;;17.39;63.75;100530.53;4164956;28;20037;-60
2023/05/07 06:28:35;;;;;;;5.60;3.22;;;;;;;17.47;64.23;100526.94;4147413;28;20408;-60
2023/05/07 06:30:40;;;;;;;8.00;3.42;;;;;;;17.44;64.49;100531.31;4147361;28;20058;-60
2023/05/07 06:32:43;;;;;;;6.43;3.50;;;;;;;17.44;64.40;100533.09;4147311;28;20038;-60
2023/05/07 06:34:47;;;;;;;6.05;3.80;;;;;;;17.42;64.46;100538.38;4147465;28;20041;-60
2023/05/07 06:36:51;;;;;;;8.00;3.60;;;;;;;17.45;64.57;100546.22;4147323;28;20037;-60
2023/05/07 06:39:07;;;;;;;7.05;3.35;;;;;;;17.53;64.03;100548.72;4147205;28;20096;-60
2023/05/07 06:41:11;;;;;;;8.15;3.95;;;;;;;17.60;63.97;100546.91;4147255;28;20144;-60
2023/05/07 06:43:14;;;;;;;5.40;3.28;;;;;;;17.66;63.69;100541.56;4164647;28;20380;-60
2023/05/07 06:45:23;;;;;;;6.53;3.80;;;;;;;17.72;64.28;100540.59;4147239;28;20041;-60
2023/05/07 06:47:28;;;;;;;6.10;3.70;;;;;;;17.81;63.92;100545.72;4147097;28;20038;-60
2023/05/07 06:49:31;;;;;;;7.15;4.13;;;;;;;17.97;62.39;100533.25;4147160;28;20046;-60
2023/05/07 06:51:34;;;;;;;8.50;5.13;;;;;;;18.12;60.55;100530.41;4147040;28;20108;-60
2023/05/07 06:53:38;;;;;;;7.55;4.63;;;;;;;18.10;59.99;100526.91;4146811;28;20088;-60
2023/05/07 06:55:45;;;;;;;11.85;4.80;;;;;;;18.12;59.05;100533.03;4130785;28;20050;-61
2023/05/07 06:57:49;;;;;;;5.88;4.35;;;;;;;18.06;58.82;100534.88;4146947;28;20073;-61
2023/05/07 06:59:53;;;;;;;5.57;3.78;;;;;;;17.97;59.41;100533.25;4146915;28;20052;-60
2023/05/07 07:01:56;;;;;;;7.40;4.65;;;;;;;17.98;59.52;100542.88;4146955;28;20124;-61
2023/05/07 07:04:00;;;;;;;7.75;4.25;;;;;;;18.13;59.39;100545.25;4130536;28;20042;-60
2023/05/07 07:06:05;;;;;;;7.78;4.63;;;;;;;18.19;59.55;100536.41;4164559;28;20052;-60
2023/05/07 07:08:08;;;;;;;7.78;4.70;;;;;;;18.13;59.55;100542.63;4147081;28;20594;-61
2023/05/07 07:10:12;;;;;;;13.20;5.50;;;;;;;18.07;59.97;100540.09;4146860;28;20042;-60
2023/05/07 07:12:16;;;;;;;10.00;5.60;;;;;;;18.14;60.00;100548.78;4164140;28;20071;-60
2023/05/07 07:14:20;;;;;;;6.28;4.35;;;;;;;18.08;59.98;100541.84;4146777;28;20038;-60
2023/05/07 07:16:25;;;;;;;8.38;5.00;;;;;;;18.11;59.86;100543.56;4146850;28;20046;-60
2023/05/07 07:18:28;;;;;;;5.88;4.55;;;;;;;18.17;60.13;100551.38;4146789;28;20113;-60
2023/05/07 07:20:33;;;;;;;6.07;4.30;;;;;;;18.29;60.22;100555.56;4146574;28;20042;-61
2023/05/07 07:22:36;;;;;;;5.45;3.65;;;;;;;18.31;60.48;100551.13;4146690;28;20132;-60
2023/05/07 07:24:39;;;;;;;11.00;4.47;;;;;;;18.42;60.05;100551.81;4130523;28;20150;-61
2023/05/07 07:26:44;;;;;;;9.95;5.25;;;;;;;18.55;59.71;100552.50;4146163;28;20038;-60
2023/05/07 07:28:49;;;;;;;7.57;4.68;;;;;;;18.55;58.72;100557.75;4146492;28;20042;-60
2023/05/07 07:30:55;;;;;;;5.50;3.50;;;;;;;18.52;58.50;100552.56;4146622;28;20100;-60
2023/05/07 07:33:02;;;;;;;7.65;4.30;;;;;;;18.55;59.23;100556.91;4146459;28;20077;-60
2023/05/07 07:35:08;;;;;;;7.40;3.58;;;;;;;18.59;59.48;100559.44;4146475;28;20429;-60
2023/05/07 07:37:12;;;;;;;9.52;5.35;;;;;;;18.80;59.21;100552.06;4146762;28;20038;-60
2023/05/07 07:39:15;;;;;;;10.13;4.95;;;;;;;18.92;58.56;100551.00;4146761;28;20096;-60
2023/05/07 07:41:18;;;;;;;8.32;5.30;;;;;;;19.01;57.30;100550.81;4146393;28;20045;-61
2023/05/07 07:43:24;;;;;;;5.03;4.05;;;;;;;18.88;57.86;100559.84;4163775;28;20048;-60
2023/05/07 07:45:28;;;;;;;9.32;4.53;;;;;;;18.76;59.15;100556.53;4146434;28;20041;-60
2023/05/07 07:47:31;;;;;;;;;;;;;;;18.78;58.93;100553.88;4147208;28;20447;-60
2023/05/07 07:49:35;;;;;;;5.32;3.50;;;;;;;18.69;59.25;100557.53;4146509;28;19925;-61
2023/05/07 07:51:41;;;;;;;7.57;4.68;;;;;;;18.79;57.97;100545.94;4162746;28;20050;-60
2023/05/07 07:53:45;;;;;;;7.88;4.03;;;;;;;18.87;58.42;100563.41;4146225;28;20042;-60
2023/05/07 07:55:48;;;;;;;5.65;4.00;;;;;;;18.86;58.35;100561.63;4146250;28;20554;-60
2023/05/07 07:57:56;;;;;;;5.93;3.35;;;;;;;18.87;58.58;100566.03;4146423;28;20439;-60
2023/05/07 07:59:59;;;;;;;5.47;3.80;;;;;;;18.95;58.51;100564.09;4146436;28;20045;-60
2023/05/07 08:02:04;;;;;;;7.27;3.80;;;;;;;19.04;58.84;100557.78;4146400;28;20487;-60
2023/05/07 08:04:07;;;;;;;4.13;3.15;;;;;;;18.99;58.48;100564.00;4146312;28;20141;-60
2023/05/07 08:06:14;;;;;;;7.82;3.97;;;;;;;19.07;57.87;100569.16;4146332;28;20038;-60
2023/05/07 08:08:17;;;;;;;7.97;3.35;;;;;;;19.12;57.44;100571.69;4146155;28;20080;-61
2023/05/07 08:10:21;;;;;;;6.00;3.10;;;;;;;18.96;57.96;100568.47;4129701;28;20093;-61
2023/05/07 08:12:28;;;;;;;6.47;3.58;;;;;;;18.95;58.65;100574.63;4146005;28;20120;-60
2023/05/07 08:14:31;;;;;;;7.07;3.78;;;;;;;19.00;59.28;100578.06;4146047;28;20096;-60
2023/05/07 08:16:34;;;;;;;6.95;3.20;;;;;;;18.99;59.06;100579.81;4146167;28;20050;-60
2023/05/07 08:18:38;;;;;;;6.35;3.13;;;;;;;19.03;59.29;100578.00;4146116;28;20129;-61
2023/05/07 08:20:44;;;;;;;4.88;3.17;;;;;;;19.03;59.67;100583.28;4146097;28;20041;-61
2023/05/07 08:22:52;;;;;;;5.68;3.00;;;;;;;19.04;59.42;100584.13;4145797;28;20617;-61
2023/05/07 08:24:55;;;;;;;5.50;3.13;;;;;;;19.16;58.87;100582.16;4146235;28;20116;-60
2023/05/07 08:26:58;;;;;;;6.32;3.80;;;;;;;19.19;58.72;100592.63;4162513;28;20092;-60
2023/05/07 08:29:01;;;;;;;5.60;3.10;;;;;;;19.26;58.49;100576.69;4163520;28;20489;-60
2023/05/07 08:31:04;;;;;;;6.88;3.60;;;;;;;19.35;58.10;100571.25;4145924;28;20074;-60
2023/05/07 08:33:11;;;;;;;3.70;2.47;;;;;;;19.30;58.32;100586.28;4145818;28;20140;-60
2023/05/07 08:35:15;;;;;;;7.68;3.25;;;;;;;19.37;58.28;100587.88;4145975;28;20038;-61
2023/05/07 08:37:18;;;;;;;6.13;3.05;;;;;;;19.38;58.11;100592.28;4146094;28;20507;-61
2023/05/07 08:39:21;;;;;;;7.05;3.63;;;;;;;19.53;57.81;100586.66;4147394;28;20490;-60
2023/05/07 08:41:27;;;;;;;6.28;3.67;;;;;;;19.66;56.75;100591.69;4149157;28;20041;-61
2023/05/07 08:43:33;;;;;;;7.20;3.00;;;;;;;19.60;57.29;100591.84;4166389;28;20046;-60
2023/05/07 08:45:40;;;;;;;7.05;3.90;;;;;;;19.56;57.54;100582.25;4149071;28;20034;-61
2023/05/07 08:47:52;;;;;;;6.43;4.00;;;;;;;19.56;56.98;100583.09;4149010;28;20089;-60
2023/05/07 08:49:57;;;;;;;7.13;3.72;;;;;;;19.62;56.76;100582.09;4148909;28;20488;-61
2023/05/07 08:52:02;;;;;;;6.70;4.10;;;;;;;19.75;56.72;100582.72;4149034;28;20038;-60
2023/05/07 08:54:06;;;;;;;4.75;3.17;;;;;;;19.75;57.37;100588.84;4148760;28;20092;-60
2023/05/07 08:56:09;;;;;;;5.45;3.55;;;;;;;20.05;56.07;100586.47;4148855;28;20042;-60
2023/05/07 08:58:12;;;;;;;6.22;3.60;;;;;;;20.03;55.38;100583.00;4148810;28;20120;-60
2023/05/07 09:00:15;;;;;;;7.75;3.53;;;;;;;20.32;54.40;100584.09;4148790;28;20547;-60
2023/05/07 09:02:19;;;;;;;;;;;;;;;20.50;53.22;100581.00;4132624;28;20058;-60
2023/05/07 09:04:23;;;;;;;5.63;4.10;;;;;;;20.38;53.48;100563.69;4148905;28;19956;-60
2023/05/07 09:06:26;;;;;;;6.35;3.67;;;;;;;20.35;52.09;100562.88;4132565;28;20054;-60
2023/05/07 09:08:30;;;;;;;4.97;3.40;;;;;;;20.52;51.32;100562.47;4148931;28;20041;-60
2023/05/07 09:10:36;;;;;;;5.90;3.45;;;;;;;20.50;52.21;100561.63;4148827;28;20045;-61
2023/05/07 09:12:41;;;;;;;7.40;3.75;;;;;;;20.52;52.99;100555.41;4148543;28;20046;-60
2023/05/07 09:14:46;;;;;;;5.68;3.47;;;;;;;20.54;53.06;100553.56;4148562;28;20550;-59
2023/05/07 09:16:49;;;;;;;5.87;3.30;;;;;;;20.51;53.16;100561.56;4148595;28;20076;-60
2023/05/07 09:18:53;;;;;;;12.32;3.55;;;;;;;20.60;52.04;100563.13;4148512;28;20694;-60
2023/05/07 09:20:57;;;;;;;5.10;2.92;;;;;;;20.57;52.67;100566.72;4148364;28;20132;-60
2023/05/07 09:23:00;;;;;;;5.88;3.50;;;;;;;20.58;52.29;100567.59;4165627;28;20103;-60
2023/05/07 09:25:07;;;;;;;8.73;3.85;;;;;;;20.58;52.28;100567.59;4148578;28;20051;-60
2023/05/07 09:27:13;;;;;;;6.57;2.42;;;;;;;20.49;53.57;100563.41;4148527;28;20418;-60
2023/05/07 09:29:19;;;;;;;6.88;2.83;;;;;;;20.46;54.00;100574.06;4148389;28;20550;-60
2023/05/07 09:31:23;;;;;;;7.38;3.47;;;;;;;20.48;53.52;100569.59;4148339;28;20042;-60
2023/05/07 09:33:30;;;;;;;4.82;2.92;;;;;;;20.55;53.21;100565.88;4147986;28;20046;-60
2023/05/07 09:35:34;;;;;;;3.22;2.58;;;;;;;20.61;52.69;100579.84;4148216;28;20049;-60
2023/05/07 09:37:42;;;;;;;4.57;2.40;;;;;;;20.65;52.05;100569.16;4148368;28;20080;-60
2023/05/07 09:39:47;;;;;;;6.65;2.70;;;;;;;20.91;50.72;100570.28;4148136;28;20496;-60